x

Buoy I01 - Eastern Maine Shelf (44034) Wave Buoy

10:04 - Fri 28th Aug 2015 All times are EDT. -4 hours from GMT.

  • Sig Wave height 2.6ft
  • Peak Period 11s
  • Wind
    11mph, 13mph gusts
  • Sea Temp 55°f
  • Luft Temp 59°f
  • Sea Pressure 1019.3mb
  • Buoy I01 - Eastern Maine Shelf
  • Buoy I01 - Eastern Maine Shelf

More Historic Weather Station data

Upgrade to MSW Pro to gain access to the past 30 days of data for over 8000 Wavebouys and Weather Stations around the globe.

Join Pro

Comparision Forecast

View Surf forecast
   
Fr 08/28 10:04 2.5ft 11s 11 13 mph 1019.3mb 55f 59f
9:04 2ft 11s 11 13 mph 1019.2mb 55f 59f
8:04 2ft 11s 9
mph
1018.7mb 55f 58f
7:04  -   -  11 13 mph 1018.3mb 55f 59f
6:04  -   -  11 13 mph 1018.4mb 55f 60f
5:04 1ft 3s 13 16 mph 1018.4mb 55f 60f
4:04  -   -  11 13 mph 1018.4mb 55f 60f
3:04 2ft 11s 11 13 mph 1018.6mb 55f 59f
2:04 2ft 11s 9 11 mph 1018.8mb 55f 58f
1:04 1.6ft 8s 4 7 mph 1018.7mb 54f 58f
12:04 2ft 11s 7
mph
1019mb 54f 57f
11:04 2ft 11s 7
mph
1018.9mb 54f 58f
10:04 2.5ft 11s 7 9 mph 1018.9mb 55f 57f
9:04 2.5ft 11s 7 9 mph 1018.9mb 54f 58f
8:04 2.5ft 8s 7
mph
1018.4mb 54f 57f
7:04 2.5ft 11s 7 9 mph 1018.1mb 54f 59f
6:04 2.5ft 11s  -  mph - 55f -
5:04 2.5ft 11s 7
mph
1017.4mb 55f 60f
4:04 2.5ft 11s 4
mph
1017mb 56f 59f
3:04 2.5ft 11s 7 9 mph 1016.3mb 56f 60f
2:04 2.5ft 11s 7
mph
1016.4mb 56f 58f
1:04 2ft 11s 4 7 mph 1016.3mb 56f 58f
12:04 2ft 11s 7
mph
1015.7mb 56f 59f
Do 08/27 11:04 2.5ft 11s 7 9 mph 1015.2mb 55f 59f
10:04 2.5ft 11s 7 9 mph 1015mb 55f 57f
9:04  -   -  11 13 mph 1014.5mb 54f 58f
8:04 3ft 11s 11 13 mph 1013.9mb 55f 59f
7:04 1.3ft 3s 11 13 mph 1013.2mb 55f 59f
6:04 1.3ft 5s 13 16 mph 1012.9mb 55f 59f
5:04  -   -  11
mph
1012.8mb 55f 60f
4:04 3ft 11s 13 16 mph 1012.5mb 56f 60f
3:04 2.5ft 11s 9 13 mph 1012.7mb 56f 61f
2:04 2.5ft 11s 9 11 mph 1012.7mb 54f 60f
1:04 3ft 11s 9
mph
1012.6mb 56f 61f
12:04 2.5ft 11s 4 7 mph 1013mb 55f 61f
11:04 3ft 6s 2 4 mph 1013mb 56f 60f
10:04 3ft 11s 4 7 mph 1012.8mb 55f 58f
9:04 3ft 11s 7
mph
1012.5mb 55f 59f
8:04 3.5ft 6s 4 7 mph 1012.5mb 55f 59f
7:04 3ft 6s 4 7 mph 1012mb 55f 57f
6:04 3.5ft 11s 7
mph
1011.5mb 55f 58f
5:04 3.5ft 11s 4
mph
1011.2mb 56f 59f
4:04 4ft 5s 7
mph
1011.2mb 55f 59f
3:04 4ft 11s 4
mph
1011.4mb 55f 58f
2:04 5ft 6s 4 7 mph 1011.5mb 55f 60f
1:04 3.5ft 6s 4
mph
1012mb 55f 59f
12:04 3.5ft 5s 9
mph
1011.9mb 55f 61f
Mi 08/26 11:04 4ft 5s 9
mph
1011.9mb 56f 60f
10:04 4ft 6s 9
mph
1012.2mb 56f 59f
9:04 4.5ft 6s 9 11 mph 1012.2mb 56f 59f
8:04 4.5ft 6s 9 11 mph 1011.9mb 56f 60f
7:04 5.5ft 6s 11
mph
1011.7mb 56f 60f
6:04 5.5ft 6s 9
mph
1012mb 55f 59f
5:04 5.5ft 6s 13 16 mph 1012mb 55f 61f
4:04 5ft 6s 11 13 mph 1012.5mb 56f 61f
3:04 4.5ft 6s 16 18 mph 1012.8mb 56f 62f
2:04 4.5ft 6s 16 18 mph 1013.3mb 56f 62f
1:04 3.5ft 5s 13 16 mph 1013.2mb 56f 62f
12:04 4ft 5s 11 13 mph 1013.6mb 57f 62f
11:04 3.5ft 5s 4 7 mph 1013.6mb 55f 60f
10:04 3ft 5s 4
mph
1013.1mb 57f 60f
9:04 3.5ft 5s 9
mph
1012.7mb 57f 61f
8:04 4.5ft 11s 9 11 mph 1012.7mb 57f 62f
7:04 3.5ft 11s 11
mph
1012.6mb 57f 61f
6:04 3.5ft 5s 13 16 mph 1012.2mb 58f 62f
5:04 3.5ft 5s 11 16 mph 1012.1mb 57f 62f
4:04 3.5ft 8s 7 9 mph 1012.5mb 56f 61f
3:04 3ft 8s 7 9 mph 1012.8mb 54f 60f
2:04 1.6ft 4s 9 11 mph 1013mb 55f 60f
1:04 2.5ft 11s 11
mph
1013.2mb 55f 60f
12:04 2.5ft 11s 9 11 mph 1013.9mb 55f 60f
Di 08/25 11:04 2.5ft 11s 9 11 mph 1014.3mb 55f 61f
10:04 2.5ft 11s 7 9 mph 1014mb 55f 59f
9:04 2.5ft 11s 7 11 mph 1014.2mb 55f 59f
8:04 2.5ft 11s 7 9 mph 1013.7mb 55f 60f
7:04 2.5ft 11s 4 7 mph 1013.6mb 55f 60f
6:04 2.5ft 11s 7
mph
1013.3mb 56f 59f
5:04 2ft 8s  -  mph 1013.6mb 55f 59f
4:04 2.5ft 11s 9
mph
1014.1mb 55f 59f
3:04 2.5ft 11s 7 9 mph 1014.5mb 56f 59f
2:04 2ft 8s 4 7 mph 1014.7mb 55f 59f
1:04 2ft 11s 7
mph
1014.6mb 55f 59f
12:04 2ft 8s 9 11 mph 1014.6mb 55f 59f
11:04 2ft 8s 4 7 mph 1014.6mb 55f 59f
10:04 2.5ft 8s 2 4 mph 1014.3mb 56f 59f
9:04 2.5ft 8s 2 4 mph 1013.8mb 55f 59f
8:04 2.5ft 8s 4
mph
1013.5mb 55f 59f
7:04 2.5ft 8s 4 7 mph 1013.2mb 55f 58f
6:04 2.5ft 8s 4 7 mph 1012.8mb 55f 59f
5:04 2.5ft 8s 4
mph
1012.8mb 56f 59f
4:04 2ft 8s 2 4 mph 1012.8mb 56f 59f